createdAt,value
2018-09-13T00:01:46.097Z,100623.72
2018-09-13T00:04:15.045Z,100620.95
2018-09-13T00:06:43.433Z,100621.75
2018-09-13T00:09:11.836Z,100620.67
2018-09-13T00:11:40.259Z,100619.07
2018-09-13T00:14:08.648Z,100615.53
2018-09-13T00:16:37.077Z,100613.29
2018-09-13T00:19:05.581Z,100617.30
2018-09-13T00:21:34.016Z,100608.54
2018-09-13T00:24:08.557Z,100618.42
2018-09-13T00:26:36.960Z,100620.89
2018-09-13T00:29:06.221Z,100626.66
2018-09-13T00:31:34.616Z,100622.03
2018-09-13T00:34:03.069Z,100622.87
2018-09-13T00:36:31.468Z,100623.17
2018-09-13T00:39:00.090Z,100623.12
2018-09-13T00:41:28.469Z,100628.36
2018-09-13T00:43:56.876Z,100630.25
2018-09-13T00:46:25.304Z,100628.90
2018-09-13T00:48:53.687Z,100625.69
2018-09-13T00:51:22.081Z,100623.41
2018-09-13T00:53:50.469Z,100616.86
2018-09-13T00:56:18.860Z,100616.86
2018-09-13T00:58:47.277Z,100625.33
2018-09-13T01:01:15.661Z,100624.50
2018-09-13T01:03:44.111Z,100626.44
2018-09-13T01:06:12.574Z,100618.55
2018-09-13T01:08:41.000Z,100614.97
2018-09-13T01:11:09.416Z,100616.11
2018-09-13T01:13:37.985Z,100611.20
2018-09-13T01:16:06.581Z,100613.91
2018-09-13T01:18:35.026Z,100614.17
2018-09-13T01:21:03.577Z,100610.33
2018-09-13T01:23:32.006Z,100612.54
2018-09-13T01:26:00.499Z,100614.73
2018-09-13T01:28:28.961Z,100615.05
2018-09-13T01:30:57.381Z,100607.90
2018-09-13T01:33:25.774Z,100599.11
2018-09-13T01:35:54.256Z,100599.39
2018-09-13T01:38:22.698Z,100596.14
2018-09-13T01:40:51.186Z,100593.92
2018-09-13T01:43:19.590Z,100593.37
2018-09-13T01:45:48.025Z,100586.24
2018-09-13T01:48:16.471Z,100579.67
2018-09-13T01:50:44.913Z,100581.06
2018-09-13T01:53:13.313Z,100579.98
2018-09-13T01:55:41.757Z,100577.41
2018-09-13T01:58:10.277Z,100572.20
2018-09-13T02:00:38.691Z,100571.90
2018-09-13T02:03:07.142Z,100572.23
2018-09-13T02:05:35.545Z,100576.11
2018-09-13T02:08:03.967Z,100566.81
2018-09-13T02:10:32.369Z,100566.86
2018-09-13T02:13:00.748Z,100565.47
2018-09-13T02:15:29.182Z,100564.11
2018-09-13T02:17:57.605Z,100569.59
2018-09-13T02:20:26.009Z,100568.50
2018-09-13T02:22:54.417Z,100569.31
2018-09-13T02:25:22.836Z,100563.04
2018-09-13T02:27:51.258Z,100559.23
2018-09-13T02:30:19.667Z,100554.67
2018-09-13T02:32:48.105Z,100553.30
2018-09-13T02:35:16.543Z,100557.94
2018-09-13T02:37:44.961Z,100563.12
2018-09-13T02:40:13.353Z,100564.16
2018-09-13T02:42:41.814Z,100564.16
2018-09-13T02:45:10.247Z,100566.91
2018-09-13T02:47:38.658Z,100563.12
2018-09-13T02:50:07.073Z,100561.20
2018-09-13T02:52:35.506Z,100560.67
2018-09-13T02:55:03.951Z,100551.67
2018-09-13T02:57:32.353Z,100550.58
2018-09-13T03:00:00.783Z,100542.39
2018-09-13T03:02:29.196Z,100531.45
2018-09-13T03:05:13.437Z,100526.02
2018-09-13T03:07:41.877Z,100530.39
2018-09-13T03:10:10.291Z,100523.89
2018-09-13T03:12:38.767Z,100525.25
2018-09-13T03:15:07.894Z,100525.78
2018-09-13T03:17:36.316Z,100516.17
2018-09-13T03:20:04.821Z,100523.02
2018-09-13T03:22:33.220Z,100519.19
2018-09-13T03:25:01.646Z,100521.61
2018-09-13T03:27:30.113Z,100515.88
2018-09-13T03:29:58.569Z,100514.24
2018-09-13T03:32:26.957Z,100521.02
2018-09-13T03:34:55.422Z,100523.15
2018-09-13T03:37:23.832Z,100522.90
2018-09-13T03:39:52.268Z,100525.11
2018-09-13T03:42:20.996Z,100519.67
2018-09-13T03:44:49.426Z,100516.98
2018-09-13T03:47:17.829Z,100518.60
2018-09-13T03:49:46.246Z,100528.17
2018-09-13T03:52:14.693Z,100533.88
2018-09-13T03:54:43.128Z,100533.39
2018-09-13T03:57:11.560Z,100534.23
2018-09-13T03:59:39.992Z,100531.26
2018-09-13T04:02:08.429Z,100530.39
2018-09-13T04:04:36.875Z,100533.95
2018-09-13T04:07:05.279Z,100535.33
2018-09-13T04:09:33.653Z,100538.63
2018-09-13T04:12:02.067Z,100532.34
2018-09-13T04:14:30.477Z,100531.27
2018-09-13T04:16:58.937Z,100530.97
2018-09-13T04:19:32.510Z,100532.88
2018-09-13T04:22:00.912Z,100537.02
2018-09-13T04:24:29.318Z,100542.22
2018-09-13T04:26:57.727Z,100541.67
2018-09-13T04:29:26.166Z,100541.97
2018-09-13T04:31:54.577Z,100537.04
2018-09-13T04:34:23.471Z,100538.16
2018-09-13T04:36:51.874Z,100536.25
2018-09-13T04:40:45.174Z,100538.73
2018-09-13T04:43:13.621Z,100544.98
2018-09-13T04:45:42.290Z,100541.42
2018-09-13T04:48:11.422Z,100550.45
2018-09-13T04:50:39.833Z,100550.98
2018-09-13T04:53:08.248Z,100554.00
2018-09-13T04:55:36.658Z,100550.73
2018-09-13T04:58:05.218Z,100544.44
2018-09-13T05:00:33.773Z,100551.81
2018-09-13T05:03:02.184Z,100547.17
2018-09-13T05:05:30.625Z,100543.08
2018-09-13T05:07:59.021Z,100540.34
2018-09-13T05:10:27.442Z,100545.27
2018-09-13T05:12:55.952Z,100550.16
2018-09-13T05:15:24.298Z,100555.63
2018-09-13T05:17:52.704Z,100561.10
2018-09-13T05:20:21.154Z,100568.75
2018-09-13T05:22:49.541Z,100557.00
2018-09-13T05:25:18.022Z,100563.58
2018-09-13T05:27:46.533Z,100570.16
2018-09-13T05:30:14.929Z,100570.70
2018-09-13T05:32:43.490Z,100576.99
2018-09-13T05:35:11.901Z,100567.97
2018-09-13T05:37:40.349Z,100576.17
2018-09-13T05:40:09.005Z,100569.34
2018-09-13T05:42:37.485Z,100575.06
2018-09-13T05:45:05.905Z,100563.58
2018-09-13T05:47:34.311Z,100571.78
2018-09-13T05:50:02.967Z,100563.58
2018-09-13T05:52:35.391Z,100570.70
2018-09-13T05:55:03.833Z,100573.14
2018-09-13T05:57:32.281Z,100572.61
2018-09-13T06:00:00.667Z,100572.61
2018-09-13T06:02:29.053Z,100576.45
2018-09-13T06:04:57.490Z,100573.69
2018-09-13T06:07:25.895Z,100575.34
2018-09-13T06:09:54.315Z,100575.31
2018-09-13T06:12:22.722Z,100581.07
2018-09-13T06:14:51.263Z,100580.24
2018-09-13T06:17:19.680Z,100582.69
2018-09-13T06:19:48.107Z,100584.62
2018-09-13T06:22:16.517Z,100575.86
2018-09-13T06:24:44.889Z,100576.14
2018-09-13T06:27:13.375Z,100568.77
2018-09-13T06:29:41.810Z,100566.28
2018-09-13T06:32:10.183Z,100575.56
2018-09-13T06:34:38.624Z,100583.19
2018-09-13T06:37:07.105Z,100582.64
2018-09-13T06:39:35.522Z,100584.30
2018-09-13T06:42:03.977Z,100582.36
2018-09-13T06:44:32.389Z,100588.36
2018-09-13T06:47:00.830Z,100588.66
2018-09-13T06:49:29.256Z,100590.86
2018-09-13T06:51:57.761Z,100590.06
2018-09-13T06:54:26.218Z,100593.34
2018-09-13T06:56:54.722Z,100602.09
2018-09-13T06:59:23.138Z,100606.48
2018-09-13T07:02:02.739Z,100611.38
2018-09-13T07:04:31.751Z,100611.12
2018-09-13T07:07:00.398Z,100609.47
2018-09-13T07:09:29.006Z,100602.09
2018-09-13T07:11:57.581Z,100597.73
2018-09-13T07:14:26.102Z,100594.42
2018-09-13T07:16:54.665Z,100598.52
2018-09-13T07:19:23.228Z,100603.45
2018-09-13T07:21:51.741Z,100604.28
2018-09-13T07:24:20.149Z,100601.83
2018-09-13T07:26:48.584Z,100606.19
2018-09-13T07:29:17.049Z,100606.44
2018-09-13T07:31:45.487Z,100606.19
2018-09-13T07:34:13.901Z,100604.77
2018-09-13T07:36:42.388Z,100606.14
2018-09-13T07:39:12.538Z,100603.69
2018-09-13T07:41:40.945Z,100611.30
2018-09-13T07:44:09.398Z,100603.94
2018-09-13T07:46:37.840Z,100598.17
2018-09-13T07:49:06.465Z,100599.00
2018-09-13T07:51:36.137Z,100595.12
2018-09-13T07:54:04.610Z,100596.13
2018-09-13T07:56:33.161Z,100604.86
2018-09-13T07:59:01.469Z,100602.87
2018-09-13T08:01:29.887Z,100596.55
2018-09-13T08:03:58.361Z,100588.87
2018-09-13T08:06:26.797Z,100590.70
2018-09-13T08:08:55.217Z,100590.13
2018-09-13T08:11:23.633Z,100594.81
2018-09-13T08:13:52.066Z,100599.16
2018-09-13T08:16:20.489Z,100609.41
2018-09-13T08:18:48.936Z,100608.25
2018-09-13T08:21:17.401Z,100618.51
2018-09-13T08:23:45.852Z,100617.79
2018-09-13T08:26:14.313Z,100614.53
2018-09-13T08:28:42.757Z,100612.02
2018-09-13T08:31:11.197Z,100610.61
2018-09-13T08:33:39.645Z,100617.15
2018-09-13T08:36:08.149Z,100620.06
2018-09-13T08:38:36.642Z,100622.25
2018-09-13T08:41:05.123Z,100620.55
2018-09-13T08:43:33.605Z,100617.91
2018-09-13T08:46:02.049Z,100615.56
2018-09-13T08:48:30.493Z,100615.41
2018-09-13T08:50:58.948Z,100621.75
2018-09-13T08:53:27.469Z,100615.20
2018-09-13T08:55:55.968Z,100624.97
2018-09-13T08:58:24.432Z,100635.86
2018-09-13T09:00:52.861Z,100632.58
2018-09-13T09:03:21.308Z,100629.95
2018-09-13T09:05:49.767Z,100624.25
2018-09-13T09:08:18.217Z,100627.22
2018-09-13T09:10:46.688Z,100633.45
2018-09-13T09:13:15.155Z,100632.13
2018-09-13T09:15:43.621Z,100633.50
2018-09-13T09:18:12.061Z,100633.42
2018-09-13T09:20:40.520Z,100632.16
2018-09-13T09:23:08.956Z,100636.05
2018-09-13T09:25:37.424Z,100635.23
2018-09-13T09:28:05.905Z,100628.16
2018-09-13T09:30:35.255Z,100622.98
2018-09-13T09:33:03.773Z,100629.97
2018-09-13T09:35:32.278Z,100628.66
2018-09-13T09:38:00.745Z,100631.44
2018-09-13T09:40:29.265Z,100631.19
2018-09-13T09:42:57.706Z,100627.08
2018-09-13T09:45:26.109Z,100629.33
2018-09-13T09:47:56.589Z,100623.31
2018-09-13T09:50:25.054Z,100636.71
2018-09-13T09:52:53.501Z,100645.17
2018-09-13T09:55:23.249Z,100644.08
2018-09-13T09:57:52.534Z,100638.86
2018-09-13T10:00:26.236Z,100634.50
2018-09-13T10:02:54.699Z,100632.30
2018-09-13T10:05:23.168Z,100634.20
2018-09-13T10:07:51.610Z,100642.95
2018-09-13T10:10:20.030Z,100637.73
2018-09-13T10:12:48.444Z,100645.84
2018-09-13T10:15:22.129Z,100645.83
2018-09-13T10:17:55.959Z,100645.30
2018-09-13T10:20:29.642Z,100648.61
2018-09-13T10:23:03.373Z,100656.30
2018-09-13T10:25:37.034Z,100654.45
2018-09-13T10:28:10.894Z,100655.98
2018-09-13T10:30:44.629Z,100649.66
2018-09-13T10:33:18.334Z,100652.89
2018-09-13T10:35:52.069Z,100651.98
2018-09-13T10:38:25.809Z,100651.17
2018-09-13T10:40:59.620Z,100651.45
2018-09-13T10:43:33.373Z,100638.27
2018-09-13T10:46:07.116Z,100654.47
2018-09-13T10:48:35.738Z,100648.27
2018-09-13T10:51:11.286Z,100651.05
2018-09-13T10:53:44.129Z,100651.36
2018-09-13T10:56:12.726Z,100645.33
2018-09-13T10:58:41.276Z,100651.05
2018-09-13T11:01:09.757Z,100649.96
2018-09-13T11:03:38.158Z,100645.94
2018-09-13T11:06:06.605Z,100651.14
2018-09-13T11:08:34.988Z,100642.12
2018-09-13T11:11:03.588Z,100651.70
2018-09-13T11:13:35.955Z,100653.38
2018-09-13T11:16:04.399Z,100652.80
2018-09-13T11:18:32.818Z,100636.34
2018-09-13T11:21:01.230Z,100638.28
2018-09-13T11:23:29.612Z,100639.40
2018-09-13T11:25:58.065Z,100633.23
2018-09-13T11:28:26.473Z,100634.66
2018-09-13T11:31:00.216Z,100638.70
2018-09-13T11:33:28.663Z,100647.13
2018-09-13T11:35:57.117Z,100638.98
2018-09-13T11:38:25.530Z,100636.50
2018-09-13T11:40:54.309Z,100645.51
2018-09-13T11:43:22.410Z,100639.31
2018-09-13T11:45:50.871Z,100644.47
2018-09-13T11:48:19.255Z,100643.70
2018-09-13T11:50:47.678Z,100645.48
2018-09-13T11:53:16.081Z,100647.27
2018-09-13T11:55:45.425Z,100638.44
2018-09-13T11:58:15.167Z,100639.61
2018-09-13T12:00:44.069Z,100636.34
2018-09-13T12:03:13.548Z,100631.44
2018-09-13T12:05:42.029Z,100632.27
2018-09-13T12:08:10.491Z,100637.45
2018-09-13T12:10:38.909Z,100636.61
2018-09-13T12:13:07.361Z,100635.50
2018-09-13T12:15:35.790Z,100634.95
2018-09-13T12:18:04.294Z,100627.84
2018-09-13T12:20:32.689Z,100632.66
2018-09-13T12:23:01.113Z,100629.91
2018-09-13T12:25:29.559Z,100628.81
2018-09-13T12:27:57.973Z,100622.37
2018-09-13T12:30:26.370Z,100624.15
2018-09-13T12:32:54.860Z,100622.06
2018-09-13T12:35:23.258Z,100629.41
2018-09-13T12:37:51.641Z,100627.44
2018-09-13T12:40:20.069Z,100633.43
2018-09-13T12:42:48.538Z,100623.91
2018-09-13T12:45:16.954Z,100622.67
2018-09-13T12:47:45.321Z,100621.80
2018-09-13T12:50:13.762Z,100617.66
2018-09-13T12:52:42.300Z,100614.09
2018-09-13T12:55:10.695Z,100616.68
2018-09-13T12:57:39.158Z,100607.64
2018-09-13T13:00:07.634Z,100612.61
2018-09-13T13:02:36.025Z,100616.13
2018-09-13T13:05:06.298Z,100611.13
2018-09-13T13:07:34.853Z,100617.67
2018-09-13T13:10:03.291Z,100620.14
2018-09-13T13:12:31.734Z,100608.41
2018-09-13T13:15:00.151Z,100610.48
2018-09-13T13:17:28.575Z,100605.75
2018-09-13T13:19:56.958Z,100609.27
2018-09-13T13:22:25.387Z,100612.16
2018-09-13T13:24:53.781Z,100603.67
2018-09-13T13:27:22.241Z,100606.72
2018-09-13T13:29:50.605Z,100607.27
2018-09-13T13:32:19.009Z,100604.27
2018-09-13T13:34:47.421Z,100595.59
2018-09-13T13:37:15.857Z,100589.69
2018-09-13T13:39:44.262Z,100590.78
2018-09-13T13:42:12.702Z,100586.28
2018-09-13T13:44:41.109Z,100587.86
2018-09-13T13:47:09.561Z,100589.16
2018-09-13T13:49:38.059Z,100591.36
2018-09-13T13:52:06.542Z,100588.70
2018-09-13T13:54:34.937Z,100588.55
2018-09-13T13:57:03.369Z,100583.45
2018-09-13T13:59:31.754Z,100583.73
2018-09-13T14:02:00.270Z,100586.84
2018-09-13T14:04:28.686Z,100581.92
2018-09-13T14:06:57.105Z,100581.70
2018-09-13T14:09:25.501Z,100582.21
2018-09-13T14:11:53.926Z,100574.98
2018-09-13T14:14:22.327Z,100570.62
2018-09-13T14:16:50.759Z,100567.52
2018-09-13T14:19:19.172Z,100571.80
2018-09-13T14:21:47.602Z,100571.17
2018-09-13T14:24:16.126Z,100570.31
2018-09-13T14:26:44.588Z,100575.03
2018-09-13T14:29:13.161Z,100574.78
2018-09-13T14:31:41.660Z,100572.08
2018-09-13T14:34:10.069Z,100567.48
2018-09-13T14:36:38.512Z,100566.12
2018-09-13T14:39:08.701Z,100565.42
2018-09-13T14:41:37.178Z,100568.45
2018-09-13T14:44:06.169Z,100560.44
2018-09-13T14:46:34.993Z,100557.56
2018-09-13T14:49:03.441Z,100559.48
2018-09-13T14:51:31.866Z,100559.24
2018-09-13T14:54:00.389Z,100551.66
2018-09-13T14:56:29.084Z,100554.57
2018-09-13T14:58:57.501Z,100555.70
2018-09-13T15:01:25.949Z,100551.66
2018-09-13T15:03:54.386Z,100556.09
2018-09-13T15:06:22.836Z,100556.15
2018-09-13T15:08:51.301Z,100554.02
2018-09-13T15:11:19.830Z,100549.80
2018-09-13T15:13:48.309Z,100552.94
2018-09-13T15:16:16.743Z,100558.62
2018-09-13T15:18:45.163Z,100551.08
2018-09-13T15:21:13.641Z,100548.80
2018-09-13T15:23:42.349Z,100545.43
2018-09-13T15:26:10.769Z,100542.28
2018-09-13T15:28:39.196Z,100550.77
2018-09-13T15:31:07.802Z,100547.61
2018-09-13T15:33:36.087Z,100543.16
2018-09-13T15:36:04.522Z,100542.63
2018-09-13T15:38:32.956Z,100546.56
2018-09-13T15:41:01.381Z,100546.66
2018-09-13T15:43:29.818Z,100546.24
2018-09-13T15:45:58.241Z,100544.16
2018-09-13T15:48:26.642Z,100542.52
2018-09-13T15:50:55.078Z,100539.24
2018-09-13T15:53:23.582Z,100538.25
2018-09-13T15:55:51.993Z,100542.52
2018-09-13T15:58:20.413Z,100545.42
2018-09-13T16:00:48.848Z,100542.86
2018-09-13T16:03:17.281Z,100543.41
2018-09-13T16:05:45.682Z,100544.12
2018-09-13T16:08:14.139Z,100546.38
2018-09-13T16:10:42.507Z,100553.25
2018-09-13T16:13:11.035Z,100546.28
2018-09-13T16:15:39.384Z,100555.87
2018-09-13T16:18:07.809Z,100546.17
2018-09-13T16:20:36.193Z,100549.78
2018-09-13T16:23:04.622Z,100546.70
2018-09-13T16:25:33.102Z,100545.09
2018-09-13T16:28:01.612Z,100544.92
2018-09-13T16:30:30.001Z,100542.23
2018-09-13T16:32:59.529Z,100550.34
2018-09-13T16:35:28.037Z,100541.17
2018-09-13T16:38:01.717Z,100547.83
2018-09-13T16:40:35.214Z,100546.45
2018-09-13T16:43:08.972Z,100542.55
2018-09-13T16:45:37.365Z,100541.28
2018-09-13T16:48:06.388Z,100541.78
2018-09-13T16:50:34.796Z,100546.18
2018-09-13T16:53:03.365Z,100546.70
2018-09-13T16:55:31.704Z,100543.56
2018-09-13T16:58:00.118Z,100543.71
2018-09-13T17:00:28.557Z,100548.17
2018-09-13T17:02:56.974Z,100545.84
2018-09-13T17:05:25.417Z,100551.27
2018-09-13T17:07:53.964Z,100547.55
2018-09-13T17:10:22.465Z,100546.92
2018-09-13T17:12:50.921Z,100551.98
2018-09-13T17:15:19.373Z,100543.53
2018-09-13T17:17:47.822Z,100549.59
2018-09-13T17:20:16.298Z,100549.41
2018-09-13T17:22:44.775Z,100547.52
2018-09-13T17:25:13.238Z,100549.71
2018-09-13T17:27:41.721Z,100548.97
2018-09-13T17:30:10.173Z,100545.19
2018-09-13T17:32:38.625Z,100549.60
2018-09-13T17:35:07.074Z,100554.95
2018-09-13T17:37:35.875Z,100549.14
2018-09-13T17:40:04.559Z,100549.46
2018-09-13T17:42:33.390Z,100556.93
2018-09-13T17:45:02.036Z,100556.60
2018-09-13T17:47:30.693Z,100552.27
2018-09-13T17:49:59.173Z,100557.52
2018-09-13T17:52:27.605Z,100565.26
2018-09-13T17:54:56.090Z,100562.31
2018-09-13T17:57:24.611Z,100562.29
2018-09-13T17:59:53.230Z,100561.74
2018-09-13T18:02:21.690Z,100568.10
2018-09-13T18:04:50.216Z,100569.22
2018-09-13T18:07:18.670Z,100572.60
2018-09-13T18:09:47.130Z,100571.44
2018-09-13T18:12:15.534Z,100574.17
2018-09-13T18:14:43.982Z,100576.40
2018-09-13T18:17:12.440Z,100573.42
2018-09-13T18:19:40.939Z,100579.98
2018-09-13T18:22:09.419Z,100583.31
2018-09-13T18:24:37.839Z,100581.48
2018-09-13T18:27:06.246Z,100589.42
2018-09-13T18:29:34.661Z,100593.31
2018-09-13T18:32:03.071Z,100602.61
2018-09-13T18:34:32.481Z,100594.94
2018-09-13T18:37:00.877Z,100600.42
2018-09-13T18:39:29.322Z,100608.94
2018-09-13T18:41:57.738Z,100607.06
2018-09-13T18:44:26.189Z,100607.81
2018-09-13T18:47:01.258Z,100616.05
2018-09-13T18:49:29.709Z,100610.61
2018-09-13T18:51:58.149Z,100610.09
2018-09-13T18:54:26.646Z,100611.41
2018-09-13T18:56:55.050Z,100607.35
2018-09-13T18:59:23.496Z,100609.58
2018-09-13T19:01:51.913Z,100609.10
2018-09-13T19:04:20.389Z,100608.25
2018-09-13T19:06:48.861Z,100617.81
2018-09-13T19:09:17.349Z,100616.17
2018-09-13T19:11:45.816Z,100618.93
2018-09-13T19:14:14.305Z,100618.18
2018-09-13T19:16:42.810Z,100621.17
2018-09-13T19:19:11.275Z,100620.06
2018-09-13T19:21:39.707Z,100622.84
2018-09-13T19:24:08.287Z,100621.98
2018-09-13T19:26:36.730Z,100616.00
2018-09-13T19:29:05.213Z,100621.75
2018-09-13T19:31:33.713Z,100626.30
2018-09-13T19:34:07.065Z,100629.64
2018-09-13T19:36:35.501Z,100625.52
2018-09-13T19:39:04.489Z,100631.56
2018-09-13T19:41:33.002Z,100629.63
2018-09-13T19:44:01.540Z,100638.43
2018-09-13T19:46:29.970Z,100635.45
2018-09-13T19:48:58.389Z,100637.08
2018-09-13T19:51:26.926Z,100635.20
2018-09-13T19:53:57.417Z,100633.28
2018-09-13T19:56:25.838Z,100631.92
2018-09-13T19:58:54.301Z,100638.53
2018-09-13T20:01:22.729Z,100643.53
2018-09-13T20:03:51.259Z,100637.84
2018-09-13T20:06:20.753Z,100641.44
2018-09-13T20:08:49.149Z,100634.13
2018-09-13T20:11:17.573Z,100637.73
2018-09-13T20:13:46.025Z,100638.88
2018-09-13T20:16:14.523Z,100639.16
2018-09-13T20:18:43.007Z,100642.20
2018-09-13T20:21:11.467Z,100637.54
2018-09-13T20:23:39.886Z,100641.38
2018-09-13T20:26:08.363Z,100632.63
2018-09-13T20:28:36.855Z,100631.30
2018-09-13T20:31:05.304Z,100636.23
2018-09-13T20:33:33.746Z,100635.45
2018-09-13T20:36:02.313Z,100631.62
2018-09-13T20:38:30.717Z,100630.52
2018-09-13T20:40:59.193Z,100638.20
2018-09-13T20:43:28.628Z,100634.07
2018-09-13T20:45:57.137Z,100633.55
2018-09-13T20:48:27.651Z,100631.05
2018-09-13T20:50:56.089Z,100638.44
2018-09-13T20:53:24.557Z,100634.60
2018-09-13T20:55:53.047Z,100630.77
2018-09-13T20:58:21.497Z,100633.47
2018-09-13T21:00:50.003Z,100636.72
2018-09-13T21:03:18.458Z,100627.72
2018-09-13T21:05:46.981Z,100625.51
2018-09-13T21:08:15.386Z,100627.13
2018-09-13T21:10:43.811Z,100634.22
2018-09-13T21:13:12.230Z,100639.66
2018-09-13T21:15:40.693Z,100634.16
2018-09-13T21:18:09.093Z,100634.39
2018-09-13T21:20:37.498Z,100629.48
2018-09-13T21:23:05.945Z,100640.70
2018-09-13T21:25:34.358Z,100641.78
2018-09-13T21:28:02.762Z,100641.23
2018-09-13T21:30:31.194Z,100638.73
2018-09-13T21:32:59.587Z,100636.75
2018-09-13T21:35:28.042Z,100641.91
2018-09-13T21:37:56.456Z,100633.16
2018-09-13T21:40:24.894Z,100632.30
2018-09-13T21:42:53.286Z,100637.45
2018-09-13T21:45:21.829Z,100636.42
2018-09-13T21:47:50.325Z,100633.19
2018-09-13T21:50:18.750Z,100638.91
2018-09-13T21:52:47.151Z,100632.63
2018-09-13T21:55:16.365Z,100634.17
2018-09-13T21:57:44.777Z,100639.88
2018-09-13T22:00:13.337Z,100647.20
2018-09-13T22:02:42.032Z,100642.27
2018-09-13T22:05:10.584Z,100639.92
2018-09-13T22:07:39.003Z,100638.02
2018-09-13T22:10:07.442Z,100644.09
2018-09-13T22:12:35.882Z,100649.25
2018-09-13T22:15:04.345Z,100649.48
2018-09-13T22:17:32.797Z,100653.84
2018-09-13T22:20:01.220Z,100657.39
2018-09-13T22:22:29.681Z,100663.66
2018-09-13T22:24:58.098Z,100659.81
2018-09-13T22:27:26.561Z,100658.41
2018-09-13T22:29:54.997Z,100662.44
2018-09-13T22:32:23.426Z,100663.77
2018-09-13T22:34:51.894Z,100668.84
2018-09-13T22:37:20.326Z,100670.84
2018-09-13T22:39:48.789Z,100669.11
2018-09-13T22:42:17.241Z,100666.90
2018-09-13T22:44:45.714Z,100671.88
2018-09-13T22:47:14.225Z,100666.02
2018-09-13T22:49:42.650Z,100673.77
2018-09-13T22:52:11.084Z,100667.53
2018-09-13T22:54:39.509Z,100671.36
2018-09-13T22:57:08.609Z,100667.91
2018-09-13T22:59:37.041Z,100671.11
2018-09-13T23:02:05.526Z,100670.77
2018-09-13T23:04:33.945Z,100667.17
2018-09-13T23:07:02.388Z,100668.29
2018-09-13T23:09:30.904Z,100672.34
2018-09-13T23:11:59.420Z,100669.42
2018-09-13T23:14:27.827Z,100674.05
2018-09-13T23:16:56.266Z,100674.10
2018-09-13T23:19:24.689Z,100672.66
2018-09-13T23:21:53.126Z,100675.48
2018-09-13T23:44:21.377Z,100669.59
2018-09-13T23:46:49.822Z,100666.03
2018-09-13T23:49:18.258Z,100667.09
2018-09-13T23:51:46.669Z,100673.30
2018-09-13T23:54:15.028Z,100677.87
2018-09-13T23:56:43.457Z,100674.26
2018-09-13T23:59:11.895Z,100675.55
